createdAt,value
2022-10-29T00:01:00.277Z,9.90
2022-10-29T00:03:29.241Z,9.90
2022-10-29T00:06:01.715Z,9.80
2022-10-29T00:08:33.013Z,9.70
2022-10-29T00:11:20.725Z,9.80
2022-10-29T00:13:52.476Z,9.80
2022-10-29T00:16:21.676Z,9.70
2022-10-29T00:18:48.966Z,9.60
2022-10-29T00:21:18.968Z,9.60
2022-10-29T00:23:46.643Z,9.50
2022-10-29T00:26:13.520Z,9.30
2022-10-29T00:28:40.628Z,9.30
2022-10-29T00:31:12.987Z,9.30
2022-10-29T00:33:39.831Z,9.30
2022-10-29T00:36:10.212Z,9.30
2022-10-29T00:38:36.980Z,9.30
2022-10-29T00:41:05.497Z,9.20
2022-10-29T00:43:37.413Z,9.20
2022-10-29T00:46:27.083Z,9.30
2022-10-29T00:48:55.271Z,9.40
2022-10-29T00:51:22.798Z,9.30
2022-10-29T00:53:55.494Z,9.30
2022-10-29T00:56:23.256Z,9.30
2022-10-29T00:58:50.196Z,9.40
2022-10-29T01:01:19.578Z,9.40
2022-10-29T01:03:47.071Z,9.30
2022-10-29T01:06:14.072Z,9.20
2022-10-29T01:08:40.887Z,9.10
2022-10-29T01:11:26.209Z,8.90
2022-10-29T01:13:52.903Z,8.80
2022-10-29T01:16:36.226Z,8.70
2022-10-29T01:19:36.407Z,8.80
2022-10-29T01:22:35.396Z,8.70
2022-10-29T01:25:36.083Z,8.60
2022-10-29T01:28:36.577Z,8.50
2022-10-29T01:31:35.980Z,8.50
2022-10-29T01:34:36.478Z,8.40
2022-10-29T01:37:27.603Z,8.40
2022-10-29T01:40:02.023Z,8.40
2022-10-29T01:42:34.285Z,8.40
2022-10-29T01:45:14.719Z,8.40
2022-10-29T01:48:05.638Z,8.30
2022-10-29T01:50:34.140Z,8.30
2022-10-29T01:53:03.503Z,8.40
2022-10-29T01:55:35.160Z,8.40
2022-10-29T01:58:04.025Z,8.40
2022-10-29T02:00:55.190Z,8.40
2022-10-29T02:03:34.263Z,8.30
2022-10-29T02:06:25.140Z,8.50
2022-10-29T02:09:27.578Z,8.40
2022-10-29T02:12:20.395Z,8.60
2022-10-29T02:14:54.759Z,8.70
2022-10-29T02:17:21.500Z,8.80
2022-10-29T02:19:48.499Z,8.70
2022-10-29T02:22:15.249Z,8.60
2022-10-29T02:24:41.997Z,8.60
2022-10-29T02:27:08.665Z,8.70
2022-10-29T02:29:41.195Z,8.60
2022-10-29T02:32:07.903Z,8.50
2022-10-29T02:34:36.848Z,8.40
2022-10-29T02:37:06.296Z,8.30
2022-10-29T02:39:33.187Z,8.30
2022-10-29T02:41:59.939Z,8.20
2022-10-29T02:44:32.170Z,8.20
2022-10-29T02:46:58.869Z,8.10
2022-10-29T02:49:25.677Z,8.00
2022-10-29T02:51:52.529Z,8.00
2022-10-29T02:54:19.205Z,8.00
2022-10-29T02:56:45.979Z,8.00
2022-10-29T02:59:12.801Z,7.90
2022-10-29T03:01:39.669Z,7.90
2022-10-29T03:04:06.552Z,7.80
2022-10-29T03:06:33.324Z,7.70
2022-10-29T03:09:00.193Z,7.70
2022-10-29T03:11:27.089Z,7.80
2022-10-29T03:13:53.836Z,7.90
2022-10-29T03:16:20.640Z,7.80
2022-10-29T03:18:48.459Z,7.80
2022-10-29T03:21:15.277Z,7.70
2022-10-29T03:23:42.075Z,7.70
2022-10-29T03:26:10.796Z,7.70
2022-10-29T03:28:37.495Z,7.70
2022-10-29T03:31:04.380Z,7.60
2022-10-29T03:33:33.753Z,7.50
2022-10-29T03:36:05.771Z,7.40
2022-10-29T03:38:33.718Z,7.30
2022-10-29T03:41:08.342Z,7.30
2022-10-29T03:43:39.244Z,7.10
2022-10-29T03:46:06.245Z,7.00
2022-10-29T03:48:33.951Z,7.10
2022-10-29T03:51:05.888Z,7.00
2022-10-29T03:53:34.235Z,7.00
2022-10-29T03:56:01.030Z,7.00
2022-10-29T03:58:28.354Z,7.00
2022-10-29T04:00:56.835Z,6.90
2022-10-29T04:03:23.650Z,6.80
2022-10-29T04:05:52.975Z,6.80
2022-10-29T04:08:19.719Z,6.80
2022-10-29T04:10:48.482Z,6.80
2022-10-29T04:13:18.557Z,6.80
2022-10-29T04:15:48.201Z,6.80
2022-10-29T04:18:17.382Z,6.80
2022-10-29T04:22:31.682Z,6.80
2022-10-29T04:29:07.367Z,6.80
2022-10-29T04:31:34.059Z,6.80
2022-10-29T04:34:00.852Z,6.80
2022-10-29T04:36:27.657Z,6.70
2022-10-29T04:38:54.378Z,6.90
2022-10-29T04:41:21.078Z,7.00
2022-10-29T04:43:51.018Z,7.00
2022-10-29T04:46:18.149Z,7.00
2022-10-29T04:48:44.918Z,7.10
2022-10-29T04:51:24.058Z,7.10
2022-10-29T04:53:50.906Z,7.10
2022-10-29T04:56:18.523Z,7.30
2022-10-29T04:58:50.962Z,7.20
2022-10-29T05:01:18.653Z,7.30
2022-10-29T05:03:45.551Z,7.40
2022-10-29T05:06:12.405Z,7.50
2022-10-29T05:08:39.155Z,7.60
2022-10-29T05:11:06.694Z,7.60
2022-10-29T05:13:34.159Z,7.70
2022-10-29T05:16:01.139Z,7.70
2022-10-29T05:18:27.946Z,7.80
2022-10-29T05:20:55.758Z,7.90
2022-10-29T05:23:22.508Z,7.90
2022-10-29T05:25:51.546Z,7.90
2022-10-29T05:28:20.482Z,8.00
2022-10-29T05:30:53.346Z,8.00
2022-10-29T05:33:26.757Z,8.00
2022-10-29T05:35:53.962Z,7.90
2022-10-29T05:38:48.194Z,7.90
2022-10-29T05:41:27.358Z,7.90
2022-10-29T05:43:54.109Z,7.90
2022-10-29T05:46:21.620Z,7.80
2022-10-29T05:48:48.551Z,7.90
2022-10-29T05:51:15.316Z,7.90
2022-10-29T05:53:42.018Z,7.90
2022-10-29T05:56:11.042Z,8.00
2022-10-29T05:58:38.097Z,7.90
2022-10-29T06:01:09.073Z,7.90
2022-10-29T06:03:36.211Z,8.00
2022-10-29T06:06:03.084Z,7.90
2022-10-29T06:08:29.960Z,7.90
2022-10-29T06:11:01.260Z,8.00
2022-10-29T06:13:28.123Z,8.00
2022-10-29T06:15:59.568Z,8.10
2022-10-29T06:18:27.636Z,8.10
2022-10-29T06:21:00.528Z,8.20
2022-10-29T06:23:28.263Z,8.20
2022-10-29T06:25:55.113Z,8.20
2022-10-29T06:28:21.983Z,8.30
2022-10-29T06:30:50.351Z,8.30
2022-10-29T06:33:21.389Z,8.30
2022-10-29T06:35:49.261Z,8.30
2022-10-29T06:38:16.285Z,8.40
2022-10-29T06:40:51.586Z,8.40
2022-10-29T06:43:18.423Z,8.40
2022-10-29T06:45:45.408Z,8.40
2022-10-29T06:48:17.766Z,8.40
2022-10-29T06:50:48.627Z,8.40
2022-10-29T06:53:15.555Z,8.50
2022-10-29T06:55:42.452Z,8.60
2022-10-29T06:58:14.155Z,8.70
2022-10-29T07:00:41.877Z,8.80
2022-10-29T07:03:21.873Z,8.90
2022-10-29T07:05:58.173Z,8.90
2022-10-29T07:08:26.053Z,8.90
2022-10-29T07:10:53.742Z,9.00
2022-10-29T07:13:20.547Z,9.00
2022-10-29T07:15:48.281Z,9.10
2022-10-29T07:18:15.869Z,9.10
2022-10-29T07:20:44.637Z,9.00
2022-10-29T07:23:12.865Z,9.10
2022-10-29T07:25:42.095Z,9.10
2022-10-29T07:28:13.149Z,9.20
2022-10-29T07:30:45.620Z,9.30
2022-10-29T07:33:14.961Z,9.30
2022-10-29T07:35:48.351Z,9.40
2022-10-29T07:38:15.123Z,9.30
2022-10-29T07:40:50.005Z,9.50
2022-10-29T07:43:17.948Z,9.40
2022-10-29T07:45:45.963Z,9.50
2022-10-29T07:48:12.664Z,9.50
2022-10-29T07:50:39.493Z,9.60
2022-10-29T07:53:07.931Z,9.70
2022-10-29T07:55:35.722Z,9.90
2022-10-29T07:58:04.946Z,10.00
2022-10-29T08:00:33.816Z,10.10
2022-10-29T08:03:00.854Z,10.30
2022-10-29T08:05:29.602Z,10.50
2022-10-29T08:07:57.608Z,10.50
2022-10-29T08:10:28.132Z,10.60
2022-10-29T08:12:58.091Z,10.90
2022-10-29T08:15:26.917Z,10.90
2022-10-29T08:17:54.127Z,10.90
2022-10-29T08:20:22.249Z,11.10
2022-10-29T08:22:49.091Z,11.30
2022-10-29T08:25:18.209Z,11.50
2022-10-29T08:27:47.956Z,11.50
2022-10-29T08:30:14.830Z,11.60
2022-10-29T08:32:48.405Z,11.70
2022-10-29T08:35:15.394Z,11.70
2022-10-29T08:37:48.297Z,11.70
2022-10-29T08:40:36.871Z,11.70
2022-10-29T08:43:21.903Z,11.60
2022-10-29T08:45:51.198Z,11.70
2022-10-29T08:48:44.404Z,11.70
2022-10-29T08:51:24.935Z,11.80
2022-10-29T08:57:14.492Z,11.80
2022-10-29T09:02:40.694Z,11.80
2022-10-29T09:05:17.180Z,12.10
2022-10-29T09:07:44.004Z,12.20
2022-10-29T09:10:13.491Z,12.30
2022-10-29T09:13:18.393Z,12.40
2022-10-29T09:15:47.430Z,12.60
2022-10-29T09:18:46.457Z,12.70
2022-10-29T09:21:16.784Z,12.60
2022-10-29T09:24:03.334Z,12.70
2022-10-29T09:26:58.543Z,12.80
2022-10-29T09:29:46.852Z,12.90
2022-10-29T09:32:33.293Z,13.00
2022-10-29T09:35:14.537Z,13.20
2022-10-29T09:37:53.623Z,13.20
2022-10-29T09:40:30.003Z,13.30
2022-10-29T09:43:00.082Z,13.50
2022-10-29T09:45:42.371Z,13.70
2022-10-29T09:48:28.712Z,13.90
2022-10-29T09:51:06.399Z,14.10
2022-10-29T09:53:33.247Z,14.10
2022-10-29T09:56:00.017Z,14.40
2022-10-29T09:58:28.169Z,14.80
2022-10-29T10:00:57.150Z,14.90
2022-10-29T10:03:33.212Z,15.20
2022-10-29T10:06:05.836Z,15.40
2022-10-29T10:08:33.823Z,15.50
2022-10-29T10:11:07.427Z,15.60
2022-10-29T10:13:53.675Z,15.60
2022-10-29T10:16:29.523Z,15.60
2022-10-29T10:18:56.319Z,15.70
2022-10-29T10:21:30.287Z,15.80
2022-10-29T10:23:58.268Z,16.00
2022-10-29T10:26:30.913Z,16.10
2022-10-29T10:29:25.247Z,16.10
2022-10-29T10:31:58.173Z,16.20
2022-10-29T10:34:33.850Z,16.30
2022-10-29T10:37:10.929Z,16.50
2022-10-29T10:39:43.396Z,16.40
2022-10-29T10:42:24.567Z,16.60
2022-10-29T10:45:11.669Z,16.60
2022-10-29T10:47:43.075Z,16.50
2022-10-29T10:50:18.669Z,16.40
2022-10-29T10:52:46.945Z,16.40
2022-10-29T10:55:26.873Z,16.20
2022-10-29T10:58:09.055Z,16.30
2022-10-29T11:01:00.299Z,16.70
2022-10-29T11:03:48.621Z,17.00
2022-10-29T11:06:25.452Z,17.40
2022-10-29T11:09:24.050Z,17.50
2022-10-29T11:11:59.182Z,17.40
2022-10-29T11:14:44.430Z,17.40
2022-10-29T11:17:53.859Z,17.40
2022-10-29T11:20:33.478Z,17.50
2022-10-29T11:23:23.422Z,17.60
2022-10-29T11:26:14.581Z,17.60
2022-10-29T11:28:46.294Z,17.70
2022-10-29T11:31:42.722Z,17.60
2022-10-29T11:34:24.286Z,17.70
2022-10-29T11:37:03.832Z,17.50
2022-10-29T11:39:38.835Z,17.50
2022-10-29T11:42:08.240Z,17.50
2022-10-29T11:44:39.407Z,17.50
2022-10-29T11:47:27.320Z,17.40
2022-10-29T11:49:54.052Z,17.50
2022-10-29T11:52:53.190Z,17.70
2022-10-29T11:55:42.951Z,17.70
2022-10-29T11:58:21.749Z,17.70
2022-10-29T12:01:10.064Z,17.80
2022-10-29T12:03:57.655Z,17.90
2022-10-29T12:06:36.661Z,17.90
2022-10-29T12:09:26.162Z,17.90
2022-10-29T12:12:12.883Z,17.80
2022-10-29T12:15:16.274Z,17.80
2022-10-29T12:18:03.252Z,17.70
2022-10-29T12:20:35.825Z,17.50
2022-10-29T12:23:15.568Z,17.40
2022-10-29T12:26:08.904Z,17.40
2022-10-29T12:29:04.927Z,17.40
2022-10-29T12:31:56.254Z,17.30
2022-10-29T12:34:36.584Z,17.30
2022-10-29T12:37:18.363Z,17.30
2022-10-29T12:39:49.828Z,17.30
2022-10-29T12:42:25.055Z,17.30
2022-10-29T12:44:57.704Z,17.30
2022-10-29T12:47:33.402Z,17.20
2022-10-29T12:50:09.367Z,17.20
2022-10-29T12:52:49.903Z,17.10
2022-10-29T12:55:18.186Z,17.00
2022-10-29T12:57:52.527Z,16.80
2022-10-29T13:00:44.650Z,16.80
2022-10-29T13:03:55.464Z,16.70
2022-10-29T13:06:45.566Z,16.60
2022-10-29T13:09:22.584Z,16.60
2022-10-29T13:11:56.177Z,16.60
2022-10-29T13:14:40.904Z,16.70
2022-10-29T13:17:31.103Z,16.70
2022-10-29T13:20:19.011Z,16.60
2022-10-29T13:23:02.877Z,16.50
2022-10-29T13:25:42.792Z,16.50
2022-10-29T13:28:15.051Z,16.60
2022-10-29T13:30:53.030Z,16.60
2022-10-29T13:33:27.936Z,16.50
2022-10-29T13:36:04.015Z,16.80
2022-10-29T13:39:07.946Z,16.70
2022-10-29T13:41:42.597Z,16.80
2022-10-29T13:44:27.496Z,16.80
2022-10-29T13:47:05.936Z,16.90
2022-10-29T13:49:45.558Z,16.80
2022-10-29T13:52:18.185Z,16.70
2022-10-29T13:55:02.939Z,16.60
2022-10-29T13:57:32.767Z,16.50
2022-10-29T14:00:18.277Z,16.60
2022-10-29T14:03:07.757Z,16.40
2022-10-29T14:05:54.273Z,16.40
2022-10-29T14:08:25.394Z,16.50
2022-10-29T14:10:59.196Z,16.40
2022-10-29T14:13:35.883Z,16.30
2022-10-29T14:16:05.799Z,16.30
2022-10-29T14:18:37.047Z,16.30
2022-10-29T14:21:06.657Z,16.40
2022-10-29T14:23:36.512Z,16.40
2022-10-29T14:26:04.002Z,16.50
2022-10-29T14:28:40.137Z,16.40
2022-10-29T14:31:22.871Z,16.50
2022-10-29T14:34:00.603Z,16.50
2022-10-29T14:36:44.947Z,16.30
2022-10-29T14:39:36.947Z,16.30
2022-10-29T14:44:53.806Z,15.90
2022-10-29T14:47:33.327Z,15.90
2022-10-29T14:50:03.623Z,15.80
2022-10-29T14:52:34.804Z,15.80
2022-10-29T14:55:08.447Z,15.70
2022-10-29T14:57:42.795Z,15.60
2022-10-29T15:00:27.326Z,15.60
2022-10-29T15:02:56.192Z,15.50
2022-10-29T15:05:28.571Z,15.30
2022-10-29T15:08:04.261Z,15.30
2022-10-29T15:10:43.311Z,15.20
2022-10-29T15:13:29.254Z,15.10
2022-10-29T15:15:59.232Z,15.00
2022-10-29T15:18:26.440Z,15.00
2022-10-29T15:20:54.851Z,14.90
2022-10-29T15:23:28.637Z,14.80
2022-10-29T15:26:04.986Z,14.70
2022-10-29T15:28:38.771Z,14.50
2022-10-29T15:31:06.637Z,14.40
2022-10-29T15:33:37.229Z,14.30
2022-10-29T15:36:05.685Z,14.20
2022-10-29T15:38:35.441Z,14.10
2022-10-29T15:41:08.180Z,14.00
2022-10-29T15:43:48.208Z,13.80
2022-10-29T15:46:29.835Z,13.70
2022-10-29T15:48:56.518Z,13.40
2022-10-29T15:51:31.002Z,13.40
2022-10-29T15:54:02.155Z,13.20
2022-10-29T15:56:31.489Z,13.20
2022-10-29T15:59:00.363Z,13.00
2022-10-29T16:01:32.449Z,13.00
2022-10-29T16:03:59.301Z,12.80
2022-10-29T16:06:26.065Z,12.70
2022-10-29T16:08:57.086Z,12.70
2022-10-29T16:11:26.918Z,12.60
2022-10-29T16:13:55.126Z,12.50
2022-10-29T16:16:24.738Z,12.30
2022-10-29T16:18:52.885Z,12.20
2022-10-29T16:21:23.533Z,12.00
2022-10-29T16:23:51.492Z,12.00
2022-10-29T16:26:21.820Z,11.90
2022-10-29T16:28:48.871Z,11.90
2022-10-29T16:31:29.073Z,11.80
2022-10-29T16:34:03.434Z,11.70
2022-10-29T16:36:30.244Z,11.60
2022-10-29T16:38:57.073Z,11.50
2022-10-29T16:41:23.948Z,11.50
2022-10-29T16:43:54.297Z,11.40
2022-10-29T16:46:21.694Z,11.30
2022-10-29T16:48:50.630Z,11.30
2022-10-29T16:51:19.699Z,11.20
2022-10-29T16:53:46.687Z,11.10
2022-10-29T16:56:13.789Z,10.90
2022-10-29T16:58:42.817Z,10.80
2022-10-29T17:01:12.742Z,10.80
2022-10-29T17:03:39.664Z,10.70
2022-10-29T17:06:09.279Z,10.60
2022-10-29T17:08:38.433Z,10.50
2022-10-29T17:11:08.712Z,10.70
2022-10-29T17:13:38.085Z,10.80
2022-10-29T17:16:09.413Z,10.80
2022-10-29T17:18:36.553Z,10.70
2022-10-29T17:21:04.030Z,10.80
2022-10-29T17:23:31.876Z,10.80
2022-10-29T17:25:59.737Z,10.70
2022-10-29T17:28:28.127Z,10.70
2022-10-29T17:30:54.882Z,10.60
2022-10-29T17:33:24.047Z,10.60
2022-10-29T17:36:01.450Z,10.50
2022-10-29T17:38:28.214Z,10.50
2022-10-29T17:40:54.968Z,10.30
2022-10-29T17:43:24.110Z,10.30
2022-10-29T17:45:53.434Z,10.30
2022-10-29T17:48:25.870Z,10.40
2022-10-29T17:51:01.066Z,10.50
2022-10-29T17:53:29.884Z,10.40
2022-10-29T17:56:00.493Z,10.50
2022-10-29T17:58:27.624Z,10.50
2022-10-29T18:00:54.410Z,10.60
2022-10-29T18:03:25.313Z,10.60
2022-10-29T18:05:51.998Z,10.40
2022-10-29T18:08:18.832Z,10.40
2022-10-29T18:10:45.503Z,10.20
2022-10-29T18:13:14.492Z,10.10
2022-10-29T18:15:41.229Z,10.00
2022-10-29T18:18:07.978Z,9.90
2022-10-29T18:20:34.686Z,9.80
2022-10-29T18:23:01.783Z,9.60
2022-10-29T18:25:29.206Z,9.60
2022-10-29T18:27:56.695Z,9.50
2022-10-29T18:30:23.789Z,9.50
2022-10-29T18:32:50.663Z,9.50
2022-10-29T18:35:18.257Z,9.40
2022-10-29T18:37:46.690Z,9.30
2022-10-29T18:40:13.603Z,9.20
2022-10-29T18:42:40.489Z,9.30
2022-10-29T18:45:11.829Z,9.30
2022-10-29T18:47:38.604Z,9.20
2022-10-29T18:50:05.700Z,9.10
2022-10-29T18:52:33.155Z,9.20
2022-10-29T18:54:59.991Z,9.10
2022-10-29T18:57:26.840Z,9.20
2022-10-29T18:59:53.599Z,9.30
2022-10-29T19:02:20.630Z,9.20
2022-10-29T19:04:48.435Z,9.30
2022-10-29T19:07:19.486Z,9.20
2022-10-29T19:09:47.369Z,9.20
2022-10-29T19:12:14.216Z,9.00
2022-10-29T19:14:40.960Z,9.00
2022-10-29T19:17:07.762Z,8.90
2022-10-29T19:19:34.595Z,8.80
2022-10-29T19:22:01.329Z,8.80
2022-10-29T19:24:33.686Z,8.70
2022-10-29T19:27:02.678Z,8.70
2022-10-29T19:29:29.496Z,8.60
2022-10-29T19:31:56.239Z,8.50
2022-10-29T19:34:27.353Z,8.50
2022-10-29T19:36:54.145Z,8.60
2022-10-29T19:39:20.957Z,8.70
2022-10-29T19:41:48.263Z,8.70
2022-10-29T19:44:14.969Z,8.60
2022-10-29T19:46:44.250Z,8.60
2022-10-29T19:49:10.920Z,8.60
2022-10-29T19:51:40.328Z,8.70
2022-10-29T19:54:08.084Z,8.70
2022-10-29T19:56:35.232Z,8.80
2022-10-29T19:59:03.809Z,8.80
2022-10-29T20:01:31.055Z,8.80
2022-10-29T20:03:58.568Z,8.90
2022-10-29T20:06:28.243Z,9.00
2022-10-29T20:08:54.995Z,9.10
2022-10-29T20:11:21.727Z,9.10
2022-10-29T20:13:48.598Z,9.20
2022-10-29T20:16:20.163Z,9.20
2022-10-29T20:18:47.982Z,9.20
2022-10-29T20:21:15.356Z,9.30
2022-10-29T20:23:47.281Z,9.30
2022-10-29T20:26:14.030Z,9.40
2022-10-29T20:28:41.094Z,9.40
2022-10-29T20:31:17.287Z,9.40
2022-10-29T20:33:58.494Z,9.40
2022-10-29T20:36:27.719Z,9.40
2022-10-29T20:38:54.726Z,9.50
2022-10-29T20:41:22.582Z,9.40
2022-10-29T20:43:54.653Z,9.40
2022-10-29T20:46:26.004Z,9.40
2022-10-29T20:48:53.222Z,9.30
2022-10-29T20:51:20.231Z,9.30
2022-10-29T20:53:47.271Z,9.20
2022-10-29T20:56:16.254Z,9.10
2022-10-29T20:58:44.308Z,9.00
2022-10-29T21:01:14.307Z,8.90
2022-10-29T21:03:42.030Z,8.80
2022-10-29T21:06:15.643Z,8.80
2022-10-29T21:08:44.871Z,8.70
2022-10-29T21:11:13.065Z,8.60
2022-10-29T21:13:40.359Z,8.50
2022-10-29T21:16:12.633Z,8.50
2022-10-29T21:18:41.320Z,8.40
2022-10-29T21:21:09.369Z,8.40
2022-10-29T21:23:39.344Z,8.40
2022-10-29T21:26:07.835Z,8.40
2022-10-29T21:28:34.772Z,8.20
2022-10-29T21:31:01.698Z,8.10
2022-10-29T21:33:28.506Z,8.00
2022-10-29T21:35:57.019Z,8.00
2022-10-29T21:38:25.000Z,8.10
2022-10-29T21:40:52.134Z,8.10
2022-10-29T21:43:21.829Z,8.10
2022-10-29T21:45:52.525Z,8.10
2022-10-29T21:48:19.617Z,8.20
2022-10-29T21:50:47.273Z,8.20
2022-10-29T21:55:48.774Z,8.30
2022-10-29T21:58:18.224Z,8.30
2022-10-29T22:00:45.054Z,8.30
2022-10-29T22:03:11.843Z,8.20
2022-10-29T22:05:38.949Z,8.20
2022-10-29T22:08:07.859Z,8.20
2022-10-29T22:10:34.950Z,8.20
2022-10-29T22:13:01.827Z,8.20
2022-10-29T22:15:31.008Z,8.20
2022-10-29T22:17:57.700Z,8.10
2022-10-29T22:20:24.469Z,8.10
2022-10-29T22:22:51.186Z,8.10
2022-10-29T22:25:18.097Z,8.00
2022-10-29T22:27:44.864Z,8.00
2022-10-29T22:30:13.979Z,7.90
2022-10-29T22:32:41.458Z,8.00
2022-10-29T22:35:08.536Z,7.90
2022-10-29T22:37:35.280Z,7.90
2022-10-29T22:40:02.121Z,7.90
2022-10-29T22:42:28.948Z,7.90
2022-10-29T22:44:55.724Z,7.90
2022-10-29T22:47:22.417Z,7.90
2022-10-29T22:49:49.139Z,7.90
2022-10-29T22:52:15.884Z,7.90
2022-10-29T22:54:42.651Z,7.90
2022-10-29T22:57:09.378Z,7.90
2022-10-29T22:59:36.166Z,7.80
2022-10-29T23:02:03.032Z,7.80
2022-10-29T23:04:29.902Z,7.90
2022-10-29T23:07:01.614Z,7.90
2022-10-29T23:09:30.822Z,8.00
2022-10-29T23:11:57.573Z,8.00
2022-10-29T23:14:24.277Z,8.00
2022-10-29T23:16:53.269Z,8.10
2022-10-29T23:19:19.957Z,8.00
2022-10-29T23:21:46.766Z,8.00
2022-10-29T23:24:13.535Z,8.00
2022-10-29T23:26:43.246Z,8.00
2022-10-29T23:29:09.972Z,7.90
2022-10-29T23:31:36.780Z,8.00
2022-10-29T23:34:03.516Z,8.00
2022-10-29T23:36:33.194Z,8.00
2022-10-29T23:39:01.161Z,8.10
2022-10-29T23:41:29.310Z,8.20
2022-10-29T23:43:56.334Z,8.40
2022-10-29T23:46:23.460Z,8.60
2022-10-29T23:48:50.414Z,8.70
2022-10-29T23:51:19.366Z,9.00
2022-10-29T23:53:46.183Z,9.20
2022-10-29T23:56:12.935Z,9.60
2022-10-29T23:58:39.638Z,10.00
